Time;durP1;ratioP1;P1;durP2;ratioP2;P2;SDS_P1;SDS_P2;PMS_P1;PMS_P2;Temp;Humidity;BMP_temperature;BMP_pressure;BME280_temperature;BME280_humidity;BME280_pressure;Samples;Min_cycle;Max_cycle;Signal;HPM_P1;HPM_P2
2022/03/27 00:02:09;;;;;;;7.65;5.47;;;;;;;9.77;nan;103187.28;5111739;28;20038;-62
2022/03/27 00:04:35;;;;;;;6.18;5.57;;;;;;;9.76;nan;103188.13;5098196;28;20031;-63
2022/03/27 00:07:00;;;;;;;7.13;6.43;;;;;;;9.80;nan;103187.28;5113042;28;20428;-62
2022/03/27 00:09:26;;;;;;;7.30;6.60;;;;;;;9.72;nan;103192.47;5112939;28;20035;-63
2022/03/27 00:11:51;;;;;;;7.28;6.55;;;;;;;9.76;nan;103181.13;5113248;28;20045;-62
2022/03/27 00:14:16;;;;;;;7.40;6.68;;;;;;;9.76;nan;103188.13;5112812;28;20028;-64
2022/03/27 00:16:42;;;;;;;7.43;6.72;;;;;;;9.75;nan;103189.00;5112714;28;20031;-64
2022/03/27 00:19:07;;;;;;;6.72;6.13;;;;;;;9.78;nan;103174.13;5107399;28;20135;-63
2022/03/27 00:21:33;;;;;;;7.28;6.43;;;;;;;9.37;nan;103112.44;5109750;28;20408;-63
2022/03/27 00:23:58;;;;;;;6.72;6.03;;;;;;;9.83;nan;103177.69;5098124;28;20032;-62
2022/03/27 00:26:24;;;;;;;6.25;5.63;;;;;;;9.25;nan;103073.75;5091088;28;20028;-63
2022/03/27 00:28:49;;;;;;;6.07;5.57;;;;;;;9.56;nan;103132.75;5090878;28;20138;-62
2022/03/27 00:31:16;;;;;;;6.15;5.65;;;;;;;9.80;nan;103182.03;5091185;28;20040;-61
2022/03/27 00:33:42;;;;;;;6.32;5.72;;;;;;;9.77;nan;103182.00;5095505;28;20142;-63
2022/03/27 00:36:10;;;;;;;5.85;5.30;;;;;;;9.78;nan;103189.91;5112893;28;20088;-63
2022/03/27 00:38:37;;;;;;;5.63;5.15;;;;;;;9.68;nan;103180.19;5112657;28;20039;-63
2022/03/27 00:41:03;;;;;;;6.43;5.85;;;;;;;9.54;nan;103164.28;5094445;28;20491;-62
2022/03/27 00:43:28;;;;;;;6.93;6.22;;;;;;;9.59;nan;103188.00;5111152;28;20123;-62
2022/03/27 00:45:53;;;;;;;6.38;5.78;;;;;;;9.60;nan;103193.25;5112303;28;20114;-63
2022/03/27 00:48:20;;;;;;;9.88;6.80;;;;;;;9.57;nan;103197.63;5111169;28;20347;-62
2022/03/27 00:50:47;;;;;;;7.35;6.65;;;;;;;9.44;nan;103185.22;5112753;28;20036;-61
2022/03/27 00:53:13;;;;;;;7.78;6.95;;;;;;;9.11;nan;103127.09;5110766;28;20030;-62
2022/03/27 00:55:38;;;;;;;7.35;6.65;;;;;;;9.51;nan;103195.81;5112350;28;20031;-62
2022/03/27 00:58:04;;;;;;;7.22;6.45;;;;;;;9.43;nan;103197.47;5112167;28;20027;-62
2022/03/27 01:00:39;;;;;;;9.32;7.40;;;;;;;9.37;nan;103197.41;5111145;28;20522;-61
2022/03/27 01:03:25;;;;;;;8.23;7.43;;;;;;;9.38;nan;103188.66;5112403;28;20028;-62
2022/03/27 01:05:52;;;;;;;8.40;7.63;;;;;;;9.23;nan;103169.22;5111010;28;20027;-63
2022/03/27 01:09:35;;;;;;;8.05;7.35;;;;;;;9.28;nan;103181.53;5112289;28;20024;-62
2022/03/27 01:11:19;;;;;;;7.93;7.22;;;;;;;9.20;nan;103188.47;5111196;28;20068;-63
2022/03/27 01:13:56;;;;;;;7.97;7.28;;;;;;;9.12;nan;103190.16;5112361;28;20032;-61
2022/03/27 01:16:41;;;;;;;8.13;7.28;;;;;;;9.11;nan;103184.91;5112135;28;20028;-62
2022/03/27 01:19:09;;;;;;;9.52;7.35;;;;;;;8.79;nan;103137.22;5112191;28;20464;-62
2022/03/27 01:21:40;;;;;;;9.13;8.23;;;;;;;9.11;nan;103200.66;5112354;28;20232;-62
2022/03/27 01:24:06;;;;;;;8.32;7.50;;;;;;;8.58;nan;103095.00;5112272;28;20063;-61
2022/03/27 01:26:33;;;;;;;9.10;7.72;;;;;;;8.86;nan;103162.72;5093945;28;20067;-62
2022/03/27 01:28:59;;;;;;;9.10;8.02;;;;;;;8.96;nan;103169.84;5112192;28;20031;-61
2022/03/27 01:31:24;;;;;;;9.35;8.45;;;;;;;8.98;nan;103171.63;5111038;28;20039;-62
2022/03/27 01:33:50;;;;;;;8.52;7.45;;;;;;;8.96;nan;103175.09;5094237;28;20043;-62
2022/03/27 01:36:36;;;;;;;9.73;8.73;;;;;;;8.88;nan;103172.38;5115977;28;20030;-62
2022/03/27 01:39:10;;;;;;;11.07;8.77;;;;;;;8.84;nan;103185.44;5116154;28;20035;-62
2022/03/27 01:41:36;;;;;;;10.73;9.02;;;;;;;8.80;nan;103181.91;5115926;28;20032;-62
2022/03/27 01:44:02;;;;;;;9.63;8.23;;;;;;;8.78;nan;103178.38;5115899;28;20040;-62
2022/03/27 01:46:32;;;;;;;10.00;8.70;;;;;;;8.37;nan;103111.34;5111521;28;20043;-62
2022/03/27 01:49:00;;;;;;;9.23;8.30;;;;;;;8.58;nan;103147.50;5105204;28;20395;-61
2022/03/27 01:51:27;;;;;;;10.55;8.80;;;;;;;7.89;nan;103032.84;5113796;28;20417;-63
2022/03/27 01:53:53;;;;;;;10.60;8.68;;;;;;;8.62;nan;103172.91;5115209;28;20024;-62
2022/03/27 01:56:18;;;;;;;10.85;9.10;;;;;;;8.58;nan;103168.50;5113578;28;20096;-62
2022/03/27 01:58:44;;;;;;;12.35;10.15;;;;;;;8.58;nan;103171.13;5114820;28;20074;-62
2022/03/27 02:01:09;;;;;;;9.95;8.95;;;;;;;8.05;nan;103083.78;5114909;28;20107;-61
2022/03/27 02:03:35;;;;;;;10.63;9.35;;;;;;;8.54;nan;103171.94;5114913;28;20552;-62
2022/03/27 02:06:02;;;;;;;9.43;8.45;;;;;;;8.46;nan;103171.84;5107571;28;20118;-61
2022/03/27 02:08:28;;;;;;;10.65;9.00;;;;;;;8.11;nan;103100.50;5114524;28;20036;-61
2022/03/27 02:10:53;;;;;;;10.60;9.48;;;;;;;8.44;nan;103170.91;5114462;28;20032;-62
2022/03/27 02:13:19;;;;;;;11.40;9.57;;;;;;;8.05;nan;103115.25;5097460;28;20039;-62
2022/03/27 02:15:46;;;;;;;9.88;8.88;;;;;;;8.33;nan;103189.16;5113928;28;20031;-63
2022/03/27 02:18:12;;;;;;;10.60;8.73;;;;;;;8.02;nan;103131.84;5112968;28;20027;-62
2022/03/27 02:20:39;;;;;;;10.23;9.18;;;;;;;8.24;nan;103181.13;5114246;28;20051;-63
2022/03/27 02:23:05;;;;;;;10.18;8.98;;;;;;;7.76;nan;103105.19;5114121;28;20400;-63
2022/03/27 02:25:31;;;;;;;12.00;10.52;;;;;;;7.71;nan;103098.13;5114330;28;20028;-62
2022/03/27 02:27:57;;;;;;;11.25;9.68;;;;;;;7.68;nan;103105.94;5114063;28;20031;-63
2022/03/27 02:30:22;;;;;;;12.85;11.13;;;;;;;8.07;nan;103174.75;5112700;28;20035;-62
2022/03/27 02:32:47;;;;;;;12.05;10.52;;;;;;;8.00;nan;103158.91;5112524;28;20150;-62
2022/03/27 02:35:13;;;;;;;13.30;11.38;;;;;;;7.72;nan;103116.53;5114117;27;20058;-62
2022/03/27 02:37:38;;;;;;;13.88;11.15;;;;;;;8.05;nan;103171.22;5114396;28;20063;-63
2022/03/27 02:40:05;;;;;;;13.43;10.65;;;;;;;8.01;nan;103158.91;5112633;28;20047;-62
2022/03/27 02:42:30;;;;;;;11.60;10.32;;;;;;;8.00;nan;103154.50;5110998;28;20061;-64
2022/03/27 02:44:56;;;;;;;11.98;9.35;;;;;;;7.58;nan;103086.59;5112086;28;20124;-62
2022/03/27 02:47:21;;;;;;;11.38;10.02;;;;;;;7.88;nan;103139.47;5112799;28;20035;-62
2022/03/27 02:49:46;;;;;;;12.40;10.07;;;;;;;7.93;nan;103157.94;5113663;28;20042;-61
2022/03/27 02:52:12;;;;;;;12.20;9.85;;;;;;;7.54;nan;103082.16;5113658;28;20486;-63
2022/03/27 02:54:37;;;;;;;10.88;9.63;;;;;;;8.02;nan;103165.03;5113696;28;20054;-63
2022/03/27 02:57:02;;;;;;;11.18;9.90;;;;;;;7.75;nan;103115.69;5113015;28;20463;-62
2022/03/27 02:59:28;;;;;;;11.20;10.00;;;;;;;7.96;nan;103168.47;5112273;28;20024;-62
2022/03/27 03:01:53;;;;;;;12.55;10.88;;;;;;;7.98;nan;103150.09;5113464;28;20036;-62
2022/03/27 03:04:19;;;;;;;12.20;10.90;;;;;;;7.67;nan;103098.97;5112215;28;20188;-62
2022/03/27 03:06:44;;;;;;;11.70;10.50;;;;;;;7.95;nan;103140.47;5113350;28;20120;-64
2022/03/27 03:09:10;;;;;;;11.82;10.23;;;;;;;7.96;nan;103151.84;5113090;28;20533;-62
2022/03/27 03:11:36;;;;;;;11.50;9.68;;;;;;;7.90;nan;103123.78;5113135;28;20043;-62
2022/03/27 03:14:01;;;;;;;12.02;10.70;;;;;;;7.96;nan;103142.25;5113298;28;20106;-61
2022/03/27 03:16:27;;;;;;;11.45;10.13;;;;;;;7.28;nan;103059.91;5113113;28;20108;-63
2022/03/27 03:18:52;;;;;;;13.73;11.90;;;;;;;7.83;nan;103121.91;5112148;28;20093;-62
2022/03/27 03:21:18;;;;;;;13.60;11.52;;;;;;;7.99;nan;103139.66;5112674;28;20044;-62
2022/03/27 03:23:43;;;;;;;12.88;11.55;;;;;;;7.99;nan;103144.91;5094681;28;20039;-61
2022/03/27 03:26:09;;;;;;;12.35;10.27;;;;;;;7.86;nan;103140.31;5111489;28;20108;-62
2022/03/27 03:28:35;;;;;;;11.45;10.25;;;;;;;7.92;nan;103154.41;5112984;28;20042;-62
2022/03/27 03:31:00;;;;;;;11.48;10.20;;;;;;;7.85;nan;103126.31;5112856;28;20532;-61
2022/03/27 03:33:26;;;;;;;14.00;12.05;;;;;;;7.86;nan;103137.69;5112975;28;20031;-62
2022/03/27 03:35:51;;;;;;;12.05;10.77;;;;;;;7.44;nan;103064.53;5111650;28;20031;-62
2022/03/27 03:38:17;;;;;;;12.15;10.32;;;;;;;7.85;nan;103154.31;5111485;28;20031;-62
2022/03/27 03:40:42;;;;;;;11.98;10.40;;;;;;;7.76;nan;103141.91;5112555;28;20122;-63
2022/03/27 03:43:09;;;;;;;11.90;10.43;;;;;;;7.57;nan;103115.38;5112555;28;20544;-63
2022/03/27 03:45:35;;;;;;;10.68;9.57;;;;;;;7.65;nan;103153.09;5111320;28;20467;-62
2022/03/27 03:48:00;;;;;;;12.20;10.70;;;;;;;7.65;nan;103142.59;5112547;28;20032;-62
2022/03/27 03:50:27;;;;;;;12.90;10.95;;;;;;;7.28;nan;103080.84;5112269;28;20042;-62
2022/03/27 03:52:53;;;;;;;13.40;10.88;;;;;;;7.60;nan;103144.28;5090940;28;20464;-63
2022/03/27 03:55:18;;;;;;;15.23;12.10;;;;;;;7.13;nan;103071.00;5095422;28;20069;-62
2022/03/27 03:57:44;;;;;;;16.17;13.02;;;;;;;7.52;nan;103131.06;5112519;28;20032;-62
2022/03/27 04:00:10;;;;;;;15.30;11.48;;;;;;;7.44;nan;103135.28;5112180;28;20498;-62
2022/03/27 04:02:35;;;;;;;14.52;12.93;;;;;;;7.47;nan;103140.59;5112218;28;20027;-62
2022/03/27 04:05:03;;;;;;;18.40;13.43;;;;;;;7.44;nan;103143.16;5112226;28;20544;-62
2022/03/27 04:07:29;;;;;;;15.82;12.88;;;;;;;7.44;nan;103147.50;5112812;28;20034;-62
2022/03/27 04:09:54;;;;;;;17.48;13.52;;;;;;;7.45;nan;103147.53;5111878;28;20043;-63
2022/03/27 04:12:19;;;;;;;17.17;13.63;;;;;;;7.46;nan;103145.78;5112369;28;20177;-62
2022/03/27 04:14:45;;;;;;;18.95;14.52;;;;;;;7.48;nan;103146.69;5112183;28;20048;-62
2022/03/27 04:17:11;;;;;;;22.27;14.93;;;;;;;7.49;nan;103146.72;5111924;28;20040;-62
2022/03/27 04:19:37;;;;;;;16.67;12.68;;;;;;;7.49;nan;103137.97;5112102;28;20028;-63
2022/03/27 04:22:03;;;;;;;14.88;12.50;;;;;;;7.19;nan;103089.44;5112040;28;20111;-62
2022/03/27 04:24:28;;;;;;;17.08;12.15;;;;;;;7.10;nan;103064.81;5110510;28;20096;-63
2022/03/27 04:26:54;;;;;;;16.63;11.82;;;;;;;7.45;nan;103131.78;5111824;28;20031;-61
2022/03/27 04:29:19;;;;;;;14.73;10.65;;;;;;;7.14;nan;103078.00;5111674;28;20038;-62
2022/03/27 04:31:45;;;;;;;13.43;11.18;;;;;;;7.51;nan;103146.75;5112114;28;20387;-62
2022/03/27 04:34:10;;;;;;;11.30;9.23;;;;;;;7.36;nan;103145.63;5111761;28;20035;-62
2022/03/27 04:36:36;;;;;;;9.52;8.57;;;;;;;7.26;nan;103125.38;5110628;28;20027;-62
2022/03/27 04:39:02;;;;;;;9.02;8.13;;;;;;;7.18;nan;103118.25;5111585;28;20043;-62
2022/03/27 04:41:28;;;;;;;8.90;7.97;;;;;;;7.33;nan;103163.03;5110605;28;20537;-62
2022/03/27 04:43:53;;;;;;;9.18;8.07;;;;;;;6.64;nan;103024.75;5110759;28;20035;-62
2022/03/27 04:46:18;;;;;;;9.75;8.10;;;;;;;6.90;nan;103093.28;5111473;28;20043;-62
2022/03/27 04:48:45;;;;;;;9.18;8.13;;;;;;;7.30;nan;103170.81;5111728;28;20032;-62
2022/03/27 04:51:11;;;;;;;8.55;7.75;;;;;;;7.21;nan;103149.69;5111482;28;20042;-61
2022/03/27 04:53:36;;;;;;;9.23;8.25;;;;;;;6.98;nan;103094.28;5110436;28;20039;-62
2022/03/27 04:56:01;;;;;;;8.52;7.70;;;;;;;6.88;nan;103079.28;5111626;28;20031;-62
2022/03/27 04:58:27;;;;;;;9.27;8.20;;;;;;;7.38;nan;103157.88;5111776;28;20105;-62
2022/03/27 05:00:52;;;;;;;9.32;8.40;;;;;;;7.38;nan;103159.63;5109390;28;20427;-63
2022/03/27 05:03:17;;;;;;;9.50;8.27;;;;;;;7.35;nan;103159.56;5110156;28;20438;-61
2022/03/27 05:05:43;;;;;;;8.73;7.80;;;;;;;7.00;nan;103094.34;5111427;28;20448;-63
2022/03/27 05:08:09;;;;;;;9.55;8.55;;;;;;;7.38;nan;103175.34;5111394;28;20403;-62
2022/03/27 05:10:35;;;;;;;10.57;8.52;;;;;;;6.89;nan;103093.25;5113628;28;20027;-64
2022/03/27 05:13:00;;;;;;;8.55;7.72;;;;;;;6.88;nan;103100.22;5115646;28;20026;-63
2022/03/27 05:15:27;;;;;;;8.07;7.30;;;;;;;6.84;nan;103082.69;5114402;28;20364;-62
2022/03/27 05:17:55;;;;;;;7.75;7.03;;;;;;;6.86;nan;103106.28;5115910;28;20387;-62
2022/03/27 05:20:21;;;;;;;10.73;8.57;;;;;;;7.22;nan;103169.81;5114238;28;20063;-62
2022/03/27 05:22:46;;;;;;;9.52;8.25;;;;;;;7.21;nan;103165.41;5114247;28;20399;-61
2022/03/27 05:25:13;;;;;;;9.20;8.20;;;;;;;6.78;nan;103090.44;5115723;28;20039;-62
2022/03/27 05:27:43;;;;;;;8.20;7.40;;;;;;;7.11;nan;103169.63;5115416;28;20472;-63
2022/03/27 05:30:08;;;;;;;9.15;8.25;;;;;;;6.79;nan;103118.38;5114116;28;20463;-62
2022/03/27 05:32:34;;;;;;;9.90;8.93;;;;;;;7.06;nan;103173.91;5115412;28;20035;-62
2022/03/27 05:34:59;;;;;;;10.40;9.30;;;;;;;6.95;nan;103158.81;5115264;28;20464;-62
2022/03/27 05:37:24;;;;;;;8.80;7.90;;;;;;;6.97;nan;103151.88;5115003;28;20043;-62
2022/03/27 05:39:50;;;;;;;10.00;9.00;;;;;;;6.64;nan;103103.25;5115331;28;20428;-63
2022/03/27 05:42:15;;;;;;;10.05;8.75;;;;;;;6.93;nan;103169.25;5113847;28;20040;-62
2022/03/27 05:44:41;;;;;;;9.85;8.80;;;;;;;7.04;nan;103182.56;5110403;28;20452;-62
2022/03/27 05:47:06;;;;;;;9.25;8.32;;;;;;;7.01;nan;103166.78;5098177;28;20480;-61
2022/03/27 05:49:31;;;;;;;9.43;8.43;;;;;;;6.62;nan;103104.09;5114707;28;20107;-62
2022/03/27 05:51:57;;;;;;;10.40;9.30;;;;;;;6.99;nan;103169.38;5114736;28;20028;-62
2022/03/27 05:54:22;;;;;;;8.75;7.95;;;;;;;7.07;nan;103178.25;5114806;27;20464;-63
2022/03/27 05:56:47;;;;;;;9.15;7.97;;;;;;;7.06;nan;103165.16;5114805;28;20036;-62
2022/03/27 05:59:14;;;;;;;8.60;7.65;;;;;;;7.01;nan;103164.16;5114509;28;20042;-62
2022/03/27 06:01:40;;;;;;;9.07;7.80;;;;;;;7.01;nan;103164.16;5112382;28;20055;-62
2022/03/27 06:04:05;;;;;;;8.43;7.63;;;;;;;6.87;nan;103170.88;5114632;28;20066;-63
2022/03/27 06:06:30;;;;;;;10.60;8.80;;;;;;;6.95;nan;103175.41;5114934;28;20027;-64
2022/03/27 06:08:57;;;;;;;8.77;7.70;;;;;;;6.57;nan;103103.09;5114386;28;20043;-62
2022/03/27 06:11:23;;;;;;;7.63;6.82;;;;;;;7.03;nan;103181.69;5112986;28;20055;-62
2022/03/27 06:13:49;;;;;;;7.80;7.00;;;;;;;6.64;nan;103118.97;5113020;28;20024;-62
2022/03/27 06:16:14;;;;;;;6.97;6.38;;;;;;;7.03;nan;103189.56;5113965;28;20043;-62
2022/03/27 06:18:40;;;;;;;8.60;7.30;;;;;;;7.11;nan;103190.56;5114583;28;20412;-62
2022/03/27 06:21:05;;;;;;;6.88;6.18;;;;;;;6.87;nan;103127.25;5112707;27;20040;-62
2022/03/27 06:23:30;;;;;;;6.80;6.13;;;;;;;7.22;nan;103185.53;5112977;28;20130;-62
2022/03/27 06:25:56;;;;;;;6.70;5.53;;;;;;;7.17;nan;103198.56;5114144;28;20112;-62
2022/03/27 06:28:21;;;;;;;6.50;5.90;;;;;;;6.95;nan;103169.28;5113975;28;20128;-62
2022/03/27 06:30:47;;;;;;;6.22;5.63;;;;;;;6.77;nan;103125.31;5113924;28;20035;-61
2022/03/27 06:33:14;;;;;;;5.75;5.13;;;;;;;7.09;nan;103200.13;5114048;28;20442;-61
2022/03/27 06:35:40;;;;;;;6.07;5.47;;;;;;;7.03;nan;103199.13;5113754;28;20085;-63
2022/03/27 06:38:05;;;;;;;6.80;6.03;;;;;;;6.82;nan;103191.72;5105791;28;20048;-62
2022/03/27 06:40:30;;;;;;;6.78;6.05;;;;;;;6.55;nan;103149.28;5109040;28;20031;-62
2022/03/27 06:42:56;;;;;;;6.88;6.18;;;;;;;6.82;nan;103209.16;5113836;27;20070;-61
2022/03/27 06:45:22;;;;;;;8.02;6.80;;;;;;;6.77;nan;103199.47;5113681;28;20098;-63
2022/03/27 06:47:49;;;;;;;7.20;6.50;;;;;;;6.83;nan;103197.88;5113518;28;20024;-62
2022/03/27 06:50:16;;;;;;;7.18;6.50;;;;;;;6.67;nan;103163.50;5113436;28;20062;-62
2022/03/27 06:52:42;;;;;;;7.32;6.63;;;;;;;7.12;nan;103218.50;5113433;28;20028;-61
2022/03/27 06:55:11;;;;;;;5.97;5.47;;;;;;;6.82;nan;103128.03;5113476;28;20111;-62
2022/03/27 06:57:37;;;;;;;7.38;6.68;;;;;;;7.06;nan;103152.94;5112115;28;20031;-61
2022/03/27 07:03:09;;;;;;;8.52;7.63;;;;;;;7.64;nan;103204.66;5113851;28;20050;-61
2022/03/27 07:05:41;;;;;;;9.63;8.18;;;;;;;8.11;nan;103208.03;5113773;28;20036;-62
2022/03/27 07:08:08;;;;;;;9.68;8.68;;;;;;;7.35;nan;103033.81;5111851;28;20369;-62
2022/03/27 07:10:34;;;;;;;10.35;8.38;;;;;;;8.80;nan;103221.28;5111929;28;20452;-61
2022/03/27 07:13:00;;;;;;;8.57;7.72;;;;;;;9.32;nan;103235.91;5111860;28;20122;-62
2022/03/27 07:15:25;;;;;;;8.45;7.65;;;;;;;9.50;nan;103235.22;5113178;28;20050;-63
2022/03/27 07:17:52;;;;;;;8.10;7.30;;;;;;;9.52;nan;103236.13;5112034;28;20440;-62
2022/03/27 07:20:26;;;;;;;8.98;8.18;;;;;;;9.53;nan;103237.88;5111460;28;20590;-62
2022/03/27 07:22:52;;;;;;;7.93;7.18;;;;;;;9.63;nan;103235.34;5111686;28;20030;-62
2022/03/27 07:25:19;;;;;;;7.53;6.75;;;;;;;9.87;nan;103239.06;5111707;28;20038;-62
2022/03/27 07:27:44;;;;;;;5.85;5.35;;;;;;;9.72;nan;103174.06;5111561;28;20059;-63
2022/03/27 07:30:10;;;;;;;6.78;6.20;;;;;;;10.62;nan;103241.41;5112586;28;20510;-62
2022/03/27 07:32:37;;;;;;;6.45;5.85;;;;;;;11.21;nan;103239.91;5112256;28;20103;-62
2022/03/27 07:35:03;;;;;;;6.85;6.15;;;;;;;11.58;nan;103247.91;5112618;28;20028;-62
2022/03/27 07:37:32;;;;;;;7.25;6.30;;;;;;;11.69;nan;103255.00;5112646;28;20045;-63
2022/03/27 07:39:58;;;;;;;7.68;6.90;;;;;;;11.66;nan;103198.66;5111484;28;20032;-62
2022/03/27 07:42:23;;;;;;;7.07;6.32;;;;;;;11.93;nan;103188.16;5111358;28;20153;-62
2022/03/27 07:44:49;;;;;;;7.70;7.00;;;;;;;12.46;nan;103275.22;5111165;28;20139;-63
2022/03/27 07:47:14;;;;;;;6.70;6.10;;;;;;;12.64;nan;103277.81;5112335;28;20043;-63
2022/03/27 07:49:39;;;;;;;6.88;6.28;;;;;;;12.95;nan;103283.91;5112509;28;20387;-63
2022/03/27 07:52:06;;;;;;;8.10;6.47;;;;;;;13.06;nan;103275.91;5112144;28;20036;-63
2022/03/27 07:54:32;;;;;;;6.75;6.15;;;;;;;13.06;nan;103267.97;5112161;28;20039;-63
2022/03/27 07:56:57;;;;;;;7.88;6.07;;;;;;;12.99;nan;103243.31;5110637;28;20035;-63
2022/03/27 07:59:23;;;;;;;9.98;7.85;;;;;;;13.29;nan;103292.59;5112324;28;20036;-63
2022/03/27 08:01:48;;;;;;;12.85;8.07;;;;;;;13.11;nan;103247.72;5110532;28;20030;-63
2022/03/27 08:04:14;;;;;;;14.77;8.23;;;;;;;13.93;nan;103291.31;5112202;28;20036;-63
2022/03/27 08:06:39;;;;;;;11.70;8.52;;;;;;;13.74;nan;103252.66;5110516;28;20390;-63
2022/03/27 08:09:06;;;;;;;10.60;7.70;;;;;;;13.86;nan;103291.38;5110645;28;20416;-64
2022/03/27 08:11:32;;;;;;;9.27;5.75;;;;;;;13.98;nan;103296.59;5111972;28;20106;-63
2022/03/27 08:13:57;;;;;;;9.07;5.80;;;;;;;14.06;nan;103284.16;5110610;28;20063;-63
2022/03/27 08:16:23;;;;;;;6.20;5.45;;;;;;;14.36;nan;103307.75;5111559;28;20484;-63
2022/03/27 08:18:49;;;;;;;7.07;5.97;;;;;;;14.26;nan;103305.19;5091436;28;20500;-64
2022/03/27 08:21:15;;;;;;;9.23;5.60;;;;;;;14.34;nan;103276.88;5111402;28;20048;-64
2022/03/27 08:23:40;;;;;;;14.00;7.65;;;;;;;14.95;nan;103288.59;5111840;28;20031;-64
2022/03/27 08:28:50;;;;;;;6.82;5.57;;;;;;;15.44;nan;103283.53;5111831;28;20483;-64
2022/03/27 08:31:15;;;;;;;7.80;6.63;;;;;;;15.74;nan;103287.53;5110487;28;20059;-64
2022/03/27 08:33:40;;;;;;;6.75;6.05;;;;;;;15.99;nan;103296.03;5110091;28;20034;-64
2022/03/27 08:36:06;;;;;;;6.22;5.63;;;;;;;15.97;nan;103289.84;5111274;28;20031;-64
2022/03/27 08:38:31;;;;;;;5.80;5.30;;;;;;;15.70;nan;103241.56;5099441;28;20115;-63
2022/03/27 08:41:00;;;;;;;8.55;5.65;;;;;;;15.41;nan;103285.38;5109942;28;20114;-64
2022/03/27 08:43:26;;;;;;;5.97;5.10;;;;;;;15.42;nan;103295.06;5110329;28;20521;-64
2022/03/27 08:45:52;;;;;;;6.15;5.60;;;;;;;15.30;nan;103247.44;5110023;28;20043;-63
2022/03/27 08:48:17;;;;;;;16.83;9.00;;;;;;;15.71;nan;103253.06;5111175;28;20071;-63
2022/03/27 08:51:28;;;;;;;13.32;8.45;;;;;;;16.68;nan;103292.16;5093029;28;20391;-64
2022/03/27 08:54:06;;;;;;;6.63;6.03;;;;;;;16.64;nan;103286.91;5079597;28;20032;-64
2022/03/27 08:56:34;;;;;;;5.45;4.82;;;;;;;16.53;nan;103233.91;5111506;28;20066;-62
2022/03/27 08:59:07;;;;;;;5.47;4.35;;;;;;;16.68;nan;103262.91;5111284;28;20049;-66
2022/03/27 09:01:32;;;;;;;4.10;3.70;;;;;;;16.42;nan;103280.22;5092477;28;20035;-65
2022/03/27 09:03:58;;;;;;;4.68;4.28;;;;;;;16.15;nan;103233.75;5090531;28;20441;-65
2022/03/27 09:06:25;;;;;;;5.28;4.05;;;;;;;16.26;nan;103261.00;5090816;28;20035;-65
2022/03/27 09:08:53;;;;;;;12.20;6.07;;;;;;;16.61;nan;103279.00;5091032;28;20112;-64
2022/03/27 09:11:20;;;;;;;11.65;6.80;;;;;;;17.32;nan;103282.88;5089735;28;20556;-64
2022/03/27 09:13:50;;;;;;;6.80;4.68;;;;;;;17.41;nan;103270.22;5091230;28;20469;-65
2022/03/27 09:16:16;;;;;;;4.78;4.30;;;;;;;17.58;nan;103277.88;5090669;28;20040;-64
2022/03/27 09:18:47;;;;;;;4.35;3.95;;;;;;;17.64;nan;103292.81;5089748;28;20108;-64
2022/03/27 09:21:13;;;;;;;;;;;;;;;17.55;nan;103280.59;5091262;28;20109;-64
2022/03/27 09:23:38;;;;;;;4.35;3.95;;;;;;;18.28;nan;103276.13;5089745;28;19916;-64
2022/03/27 09:26:11;;;;;;;4.63;4.22;;;;;;;18.16;nan;103221.34;5090784;28;20028;-63
2022/03/27 09:28:40;;;;;;;3.70;3.40;;;;;;;18.83;nan;103281.75;5090544;28;20075;-64
2022/03/27 09:31:06;;;;;;;3.28;3.05;;;;;;;19.45;nan;103274.59;5090899;28;20165;-63
2022/03/27 09:33:49;;;;;;;4.10;3.75;;;;;;;18.87;nan;103277.22;5090972;28;20029;-63
2022/03/27 09:36:32;;;;;;;3.53;3.22;;;;;;;19.00;nan;103281.28;5090797;28;20085;-63
2022/03/27 09:39:07;;;;;;;4.00;3.60;;;;;;;19.42;nan;103277.34;5090678;28;20020;-63
2022/03/27 09:41:44;;;;;;;4.22;3.90;;;;;;;19.35;nan;103270.41;5090849;28;20106;-65
2022/03/27 09:44:15;;;;;;;5.00;3.70;;;;;;;19.87;nan;103282.19;5090488;28;20032;-65
2022/03/27 09:46:47;;;;;;;;;;;;;;;19.55;nan;103276.06;5089701;28;20768;-64
2022/03/27 09:49:14;;;;;;;4.68;4.20;;;;;;;18.84;nan;103250.59;5090695;28;19916;-65
2022/03/27 09:51:52;;;;;;;5.00;4.22;;;;;;;18.92;nan;103275.28;5090634;28;20068;-65
2022/03/27 09:54:18;;;;;;;5.03;4.00;;;;;;;18.89;nan;103270.91;5090580;28;20145;-65
2022/03/27 09:56:43;;;;;;;4.25;3.60;;;;;;;18.96;nan;103205.78;5093929;28;20040;-65
2022/03/27 09:59:25;;;;;;;4.38;3.80;;;;;;;19.69;nan;103262.25;5094443;28;20036;-65
2022/03/27 10:01:50;;;;;;;5.13;4.13;;;;;;;19.71;nan;103263.09;5094135;28;20040;-65
2022/03/27 10:04:16;;;;;;;4.88;3.80;;;;;;;20.06;nan;103262.78;5092740;28;20036;-65
2022/03/27 10:06:42;;;;;;;4.10;3.70;;;;;;;20.39;nan;103252.78;5094153;28;20036;-65
2022/03/27 10:09:09;;;;;;;5.22;3.75;;;;;;;20.14;nan;103199.22;5094075;28;20157;-64
2022/03/27 10:11:35;;;;;;;5.85;4.60;;;;;;;21.24;nan;103257.66;5059191;28;20443;-65
2022/03/27 10:14:03;;;;;;;6.38;4.10;;;;;;;20.73;nan;103210.47;5093678;28;20052;-59
2022/03/27 10:16:34;;;;;;;3.47;3.17;;;;;;;21.10;nan;103258.16;5091416;28;20055;-61
2022/03/27 10:19:07;;;;;;;4.25;3.70;;;;;;;19.85;nan;103206.53;5093866;28;20084;-61
2022/03/27 10:21:33;;;;;;;4.18;3.42;;;;;;;20.17;nan;103203.59;5092328;28;20055;-60
2022/03/27 10:24:06;;;;;;;3.38;3.08;;;;;;;20.94;nan;103250.75;5092355;28;20024;-60
2022/03/27 10:26:32;;;;;;;3.78;3.28;;;;;;;20.30;nan;103140.75;5092074;28;20488;-61
2022/03/27 10:28:59;;;;;;;4.25;3.50;;;;;;;20.72;nan;103221.25;5091509;28;20062;-60
2022/03/27 10:31:25;;;;;;;5.20;3.17;;;;;;;20.81;nan;103218.19;5092174;28;20043;-61
2022/03/27 10:33:51;;;;;;;3.53;3.22;;;;;;;21.21;nan;103247.06;5092453;28;20028;-59
2022/03/27 10:36:23;;;;;;;3.40;3.10;;;;;;;21.11;nan;103176.91;5091915;28;20032;-62
2022/03/27 10:39:25;;;;;;;4.68;3.45;;;;;;;22.01;nan;103242.94;5092580;28;20182;-61
2022/03/27 10:42:07;;;;;;;4.38;3.10;;;;;;;22.39;nan;103232.25;5061395;28;20051;-61
2022/03/27 10:44:44;;;;;;;3.90;3.00;;;;;;;22.26;nan;103231.06;5075204;28;20020;-61
2022/03/27 10:47:13;;;;;;;3.50;3.20;;;;;;;22.58;nan;103223.41;5092262;28;20036;-61
2022/03/27 10:49:40;;;;;;;4.20;3.25;;;;;;;21.92;nan;103227.22;5093340;28;20387;-61
2022/03/27 10:52:07;;;;;;;4.07;3.70;;;;;;;22.79;nan;103220.66;5092039;28;20035;-61
2022/03/27 10:54:55;;;;;;;4.13;3.72;;;;;;;23.12;nan;103231.63;5092317;28;20483;-60
2022/03/27 10:57:32;;;;;;;4.15;3.75;;;;;;;22.91;nan;103222.75;5093341;28;20174;-60
2022/03/27 10:59:58;;;;;;;4.18;3.78;;;;;;;23.02;nan;103218.69;5091814;28;20024;-59
2022/03/27 11:02:50;;;;;;;4.07;3.65;;;;;;;23.38;nan;103220.53;5091781;28;20024;-61
2022/03/27 11:05:31;;;;;;;5.15;3.83;;;;;;;23.71;nan;103207.25;5091934;28;20050;-61
2022/03/27 11:08:15;;;;;;;5.95;3.90;;;;;;;24.03;nan;103217.22;5092426;28;20032;-60
2022/03/27 11:10:41;;;;;;;4.00;3.63;;;;;;;23.98;nan;103210.34;5092881;28;20076;-61
2022/03/27 11:13:25;;;;;;;4.30;3.50;;;;;;;;;;5093512;28;20044;-61
2022/03/27 11:16:10;;;;;;;4.30;3.47;;;;;;;;;;5093204;28;20536;-61
2022/03/27 11:18:36;;;;;;;5.43;4.10;;;;;;;;;;5093089;28;20028;-61
2022/03/27 11:21:02;;;;;;;4.05;3.60;;;;;;;;;;5091287;28;20044;-60
2022/03/27 11:23:28;;;;;;;5.88;3.90;;;;;;;;;;5092727;28;20158;-61
2022/03/27 11:25:54;;;;;;;3.83;3.28;;;;;;;;;;5092886;28;20028;-60
2022/03/27 11:28:22;;;;;;;6.57;3.35;;;;;;;;;;5092728;28;20028;-60
2022/03/27 11:30:47;;;;;;;3.22;2.50;;;;;;;;;;5092609;28;20071;-59
2022/03/27 11:33:16;;;;;;;3.97;2.33;;;;;;;;;;5092601;28;20063;-60
2022/03/27 11:35:42;;;;;;;3.67;2.47;;;;;;;;;;5091476;28;20484;-61
2022/03/27 11:38:21;;;;;;;4.53;2.22;;;;;;;;;;5092834;28;20106;-60
2022/03/27 11:40:46;;;;;;;4.57;2.13;;;;;;;;;;5092559;28;20058;-62
2022/03/27 11:43:27;;;;;;;4.03;2.05;;;;;;;;;;5092401;28;20028;-61
2022/03/27 11:45:54;;;;;;;3.13;1.90;;;;;;;;;;5092875;28;20042;-61
2022/03/27 11:48:22;;;;;;;5.18;1.70;;;;;;;;;;5092036;28;20028;-60
2022/03/27 11:50:48;;;;;;;4.22;2.00;;;;;;;;;;5091567;28;20100;-61
2022/03/27 11:53:13;;;;;;;4.75;1.95;;;;;;;;;;5092323;28;20106;-59
2022/03/27 11:55:39;;;;;;;4.60;2.10;;;;;;;;;;5092131;28;20033;-60
2022/03/27 11:58:05;;;;;;;2.28;1.60;;;;;;;;;;5090654;28;20472;-59
2022/03/27 12:00:39;;;;;;;3.35;1.55;;;;;;;;;;5092095;28;20043;-60
2022/03/27 12:03:13;;;;;;;3.10;1.95;;;;;;;;;;5092121;28;20194;-56